Terminal Aerodrome Forecast
Issued by NWS Corpus Christi, TX

Home | Current Version | Previous Version | Text Only | Print | Product List | Glossary On
Versions: 1 2 3 4 5 6 7 8 9 10 11 12 13 14 15 16 17 18
338
FTUS44 KCRP 250538
TAFVCT
TAF
KVCT 250538Z 2506/2606 08005KT P6SM FEW025
     FM250900 VRB03KT 5SM BR SCT015
     FM251500 13008KT P6SM SCT025 SCT035
     FM251700 14010KT P6SM VCSH SCT025 BKN035
     FM252100 14011KT P6SM SCT040 SCT250
     FM260200 13007KT P6SM SCT020 BKN250=

USA.gov is the U.S. government's official web portal to all federal, state and local government web resources and services.